createdAt,value
2022-11-16T00:03:55.888Z,6.10
2022-11-16T00:09:23.278Z,6.45
2022-11-16T00:14:32.401Z,6.33
2022-11-16T00:19:34.682Z,6.50
2022-11-16T00:24:38.485Z,6.43
2022-11-16T00:29:40.167Z,5.97
2022-11-16T00:34:42.234Z,6.30
2022-11-16T00:39:45.034Z,6.57
2022-11-16T00:44:47.650Z,5.55
2022-11-16T00:49:50.277Z,6.18
2022-11-16T00:54:52.816Z,6.20
2022-11-16T00:59:54.820Z,6.50
2022-11-16T01:04:57.844Z,6.00
2022-11-16T01:09:59.635Z,6.00
2022-11-16T01:15:08.922Z,6.60
2022-11-16T01:20:14.771Z,6.00
2022-11-16T01:25:18.831Z,6.27
2022-11-16T01:30:25.212Z,6.37
2022-11-16T01:35:42.508Z,5.80
2022-11-16T01:40:45.109Z,5.97
2022-11-16T01:45:47.153Z,5.55
2022-11-16T01:50:50.219Z,5.80
2022-11-16T01:55:57.155Z,5.90
2022-11-16T02:01:15.706Z,6.43
2022-11-16T02:06:26.406Z,7.17
2022-11-16T02:12:07.727Z,5.97
2022-11-16T02:17:33.516Z,6.73
2022-11-16T02:22:58.358Z,6.40
2022-11-16T02:28:12.022Z,5.60
2022-11-16T02:33:19.019Z,5.85
2022-11-16T02:38:29.747Z,6.38
2022-11-16T02:43:39.388Z,6.93
2022-11-16T02:48:48.253Z,7.05
2022-11-16T02:54:09.591Z,7.33
2022-11-16T02:59:17.546Z,7.20
2022-11-16T03:04:38.195Z,7.30
2022-11-16T03:09:46.245Z,7.03
2022-11-16T03:14:55.007Z,7.33
2022-11-16T03:20:02.584Z,8.33
2022-11-16T03:25:12.859Z,8.33
2022-11-16T03:30:24.629Z,8.83
2022-11-16T03:35:44.608Z,9.90
2022-11-16T03:40:49.692Z,10.20
2022-11-16T03:45:51.743Z,10.20
2022-11-16T03:50:55.788Z,9.93
2022-11-16T03:56:00.790Z,11.00
2022-11-16T04:01:05.911Z,11.47
2022-11-16T04:06:29.660Z,12.00
2022-11-16T04:11:50.074Z,12.37
2022-11-16T04:17:24.042Z,13.27
2022-11-16T04:22:51.702Z,14.17
2022-11-16T04:28:13.026Z,14.23
2022-11-16T04:33:35.959Z,15.10
2022-11-16T04:38:37.819Z,15.37
2022-11-16T04:43:42.454Z,16.23
2022-11-16T04:48:47.520Z,16.13
2022-11-16T04:53:54.146Z,17.60
2022-11-16T04:58:57.998Z,17.70
2022-11-16T05:04:02.386Z,17.67
2022-11-16T05:09:04.506Z,18.60
2022-11-16T05:14:08.173Z,17.97
2022-11-16T05:19:35.122Z,18.20
2022-11-16T05:24:39.789Z,19.33
2022-11-16T05:29:44.211Z,21.07
2022-11-16T05:34:56.062Z,21.53
2022-11-16T05:40:01.369Z,21.40
2022-11-16T05:45:18.436Z,22.43
2022-11-16T05:50:27.788Z,23.40
2022-11-16T05:55:42.385Z,24.07
2022-11-16T06:00:47.090Z,24.87
2022-11-16T06:05:55.811Z,23.27
2022-11-16T06:11:06.766Z,27.10
2022-11-16T06:16:10.952Z,26.93
2022-11-16T06:21:17.802Z,27.57
2022-11-16T06:26:19.804Z,27.03
2022-11-16T06:31:25.284Z,27.87
2022-11-16T06:36:30.933Z,26.97
2022-11-16T06:41:41.109Z,26.40
2022-11-16T06:46:44.347Z,25.73
2022-11-16T06:51:48.596Z,27.90
2022-11-16T06:56:50.418Z,26.13
2022-11-16T07:01:52.491Z,27.00
2022-11-16T07:06:57.065Z,28.83
2022-11-16T07:12:01.989Z,25.33
2022-11-16T07:17:09.934Z,24.77
2022-11-16T07:22:12.150Z,26.80
2022-11-16T07:27:16.488Z,27.30
2022-11-16T07:32:24.477Z,25.63
2022-11-16T07:37:36.961Z,26.47
2022-11-16T07:42:42.073Z,24.67
2022-11-16T07:47:53.488Z,27.17
2022-11-16T07:53:28.993Z,27.27
2022-11-16T07:58:35.851Z,27.00
2022-11-16T08:03:39.538Z,26.40
2022-11-16T08:08:47.432Z,27.63
2022-11-16T08:13:52.169Z,25.83
2022-11-16T08:18:54.995Z,27.07
2022-11-16T08:23:59.318Z,26.97
2022-11-16T08:29:02.116Z,26.07
2022-11-16T08:34:08.575Z,25.97
2022-11-16T08:39:17.903Z,25.10
2022-11-16T08:44:22.030Z,25.57
2022-11-16T08:49:31.759Z,26.17
2022-11-16T08:54:37.009Z,24.50
2022-11-16T08:59:40.175Z,23.60
2022-11-16T09:04:47.016Z,22.77
2022-11-16T09:09:51.178Z,23.17
2022-11-16T09:14:52.964Z,22.60
2022-11-16T09:19:57.675Z,21.07
2022-11-16T09:24:59.442Z,22.07
2022-11-16T09:30:05.267Z,22.33
2022-11-16T09:35:07.388Z,20.80
2022-11-16T09:40:12.061Z,22.67
2022-11-16T09:45:31.595Z,21.97
2022-11-16T09:50:53.633Z,21.20
2022-11-16T09:56:06.456Z,21.20
2022-11-16T10:01:33.569Z,20.47
2022-11-16T10:06:51.419Z,20.27
2022-11-16T10:12:18.325Z,21.23
2022-11-16T10:17:57.924Z,20.87
2022-11-16T10:23:35.709Z,20.73
2022-11-16T10:28:59.149Z,20.67
2022-11-16T10:34:03.671Z,20.97
2022-11-16T10:39:14.007Z,22.10
2022-11-16T10:44:27.453Z,21.70
2022-11-16T10:49:39.971Z,21.83
2022-11-16T10:54:44.442Z,22.70
2022-11-16T10:59:55.389Z,22.83
2022-11-16T11:05:03.130Z,21.87
2022-11-16T11:10:31.064Z,21.27
2022-11-16T11:15:33.815Z,20.87
2022-11-16T11:20:39.057Z,21.13
2022-11-16T11:25:49.732Z,21.77
2022-11-16T11:30:54.366Z,20.50
2022-11-16T11:35:58.334Z,20.43
2022-11-16T11:41:05.043Z,22.33
2022-11-16T11:46:15.581Z,22.03
2022-11-16T11:51:43.418Z,21.13
2022-11-16T11:56:47.764Z,21.00
2022-11-16T12:01:52.210Z,20.40
2022-11-16T12:07:34.451Z,19.37
2022-11-16T12:12:58.647Z,20.40
2022-11-16T12:18:06.496Z,19.47
2022-11-16T12:23:33.510Z,19.73
2022-11-16T12:28:51.518Z,18.90
2022-11-16T12:34:17.157Z,19.23
2022-11-16T12:39:34.009Z,19.73
2022-11-16T12:45:03.553Z,18.57
2022-11-16T12:50:30.423Z,18.73
2022-11-16T12:55:43.069Z,20.23
2022-11-16T13:01:19.669Z,18.50
2022-11-16T13:06:28.500Z,22.20
2022-11-16T13:11:35.900Z,20.07
2022-11-16T13:16:38.687Z,18.87
2022-11-16T13:22:05.687Z,17.80
2022-11-16T13:27:29.447Z,19.43
2022-11-16T13:32:42.655Z,19.90
2022-11-16T13:37:46.109Z,19.77
2022-11-16T13:43:00.981Z,20.17
2022-11-16T13:48:16.634Z,21.20
2022-11-16T13:58:55.675Z,19.83
2022-11-16T14:04:35.959Z,18.93
2022-11-16T14:09:45.541Z,17.73
2022-11-16T14:15:12.014Z,18.43
2022-11-16T14:20:22.269Z,15.73
2022-11-16T14:25:39.804Z,16.83
2022-11-16T14:31:24.787Z,17.40
2022-11-16T14:36:39.134Z,16.07
2022-11-16T14:41:44.629Z,15.03
2022-11-16T14:46:46.494Z,15.73
2022-11-16T14:51:57.308Z,16.30
2022-11-16T14:57:02.293Z,15.40
2022-11-16T15:02:21.162Z,15.23
2022-11-16T15:07:23.148Z,14.97
2022-11-16T15:12:43.131Z,15.10
2022-11-16T15:17:47.417Z,26.93
2022-11-16T15:22:54.838Z,23.50
2022-11-16T15:28:01.068Z,13.17
2022-11-16T15:33:13.055Z,13.03
2022-11-16T15:38:18.720Z,11.90
2022-11-16T15:43:25.378Z,10.83
2022-11-16T15:48:28.742Z,10.90
2022-11-16T15:53:41.304Z,10.47
2022-11-16T15:58:43.455Z,9.40
2022-11-16T16:03:56.005Z,8.77
2022-11-16T16:09:06.948Z,9.63
2022-11-16T16:14:21.801Z,9.07
2022-11-16T16:19:34.169Z,8.90
2022-11-16T16:24:42.419Z,8.93
2022-11-16T16:29:48.820Z,8.90
2022-11-16T16:34:51.990Z,9.03
2022-11-16T16:39:57.093Z,9.60
2022-11-16T16:44:59.668Z,9.70
2022-11-16T16:50:01.648Z,11.65
2022-11-16T16:55:04.168Z,10.57
2022-11-16T17:00:13.602Z,10.77
2022-11-16T17:05:15.827Z,9.37
2022-11-16T17:10:20.116Z,9.70
2022-11-16T17:15:27.458Z,10.07
2022-11-16T17:20:29.344Z,10.40
2022-11-16T17:25:35.889Z,9.77
2022-11-16T17:30:40.418Z,10.87
2022-11-16T17:35:55.173Z,9.87
2022-11-16T17:41:13.793Z,10.25
2022-11-16T17:46:20.255Z,8.90
2022-11-16T17:51:25.732Z,7.53
2022-11-16T17:56:30.883Z,9.33
2022-11-16T18:01:35.879Z,8.23
2022-11-16T18:06:38.213Z,9.00
2022-11-16T18:11:40.053Z,8.03
2022-11-16T18:16:44.519Z,8.80
2022-11-16T18:21:47.173Z,10.13
2022-11-16T18:26:53.786Z,13.10
2022-11-16T18:32:02.787Z,9.73
2022-11-16T18:37:06.303Z,9.80
2022-11-16T18:42:12.649Z,9.57
2022-11-16T18:47:14.377Z,10.23
2022-11-16T18:52:16.119Z,8.90
2022-11-16T18:57:17.978Z,9.63
2022-11-16T19:02:20.055Z,9.03
2022-11-16T19:07:26.917Z,7.63
2022-11-16T19:12:30.453Z,8.43
2022-11-16T19:17:48.160Z,7.53
2022-11-16T19:23:00.229Z,7.77
2022-11-16T19:28:07.396Z,6.63
2022-11-16T19:33:11.674Z,5.87
2022-11-16T19:38:13.900Z,6.67
2022-11-16T19:43:16.436Z,5.87
2022-11-16T19:48:18.234Z,6.67
2022-11-16T19:53:19.995Z,5.93
2022-11-16T19:58:21.860Z,6.40
2022-11-16T20:03:25.952Z,7.67
2022-11-16T20:08:30.103Z,7.13
2022-11-16T20:13:32.228Z,8.13
2022-11-16T20:18:37.315Z,7.70
2022-11-16T20:23:45.668Z,7.77
2022-11-16T20:28:51.137Z,7.97
2022-11-16T20:33:57.771Z,8.63
2022-11-16T20:39:17.376Z,8.30
2022-11-16T20:44:21.949Z,7.70
2022-11-16T20:49:25.780Z,7.93
2022-11-16T20:54:29.917Z,8.17
2022-11-16T20:59:31.927Z,8.13
2022-11-16T21:04:33.739Z,8.20
2022-11-16T21:09:55.503Z,8.43
2022-11-16T21:14:59.725Z,8.03
2022-11-16T21:20:25.822Z,8.90
2022-11-16T21:25:25.597Z,8.23
2022-11-16T21:30:27.277Z,9.53
2022-11-16T21:35:31.565Z,9.60
2022-11-16T21:40:36.439Z,9.33
2022-11-16T21:45:38.182Z,9.23
2022-11-16T21:50:40.085Z,9.80
2022-11-16T21:55:50.950Z,10.23
2022-11-16T22:00:56.725Z,10.17
2022-11-16T22:06:22.147Z,9.10
2022-11-16T22:11:26.029Z,9.37
2022-11-16T22:16:34.620Z,9.17
2022-11-16T22:21:36.328Z,8.97
2022-11-16T22:26:39.843Z,9.10
2022-11-16T22:31:41.502Z,9.27
2022-11-16T22:36:45.881Z,9.40
2022-11-16T22:41:52.440Z,9.77
2022-11-16T22:46:57.168Z,9.47
2022-11-16T22:51:58.896Z,9.47
2022-11-16T22:57:03.441Z,9.20
2022-11-16T23:02:08.685Z,8.93
2022-11-16T23:07:12.645Z,9.33
2022-11-16T23:12:35.265Z,8.80
2022-11-16T23:17:38.935Z,9.73
2022-11-16T23:22:59.292Z,8.97
2022-11-16T23:28:03.946Z,8.23
2022-11-16T23:33:07.959Z,8.33
2022-11-16T23:38:14.116Z,8.03
2022-11-16T23:43:34.401Z,8.50
2022-11-16T23:48:38.559Z,8.57
2022-11-16T23:53:44.814Z,7.97
2022-11-16T23:58:49.290Z,7.80
